createdAt,value
2022-12-08T00:00:10.466Z,16.33
2022-12-08T00:02:39.284Z,21.73
2022-12-08T00:05:28.061Z,28.10
2022-12-08T00:08:13.891Z,19.85
2022-12-08T00:10:49.611Z,17.88
2022-12-08T00:13:18.596Z,24.65
2022-12-08T00:15:47.139Z,21.38
2022-12-08T00:18:15.640Z,21.63
2022-12-08T00:20:45.545Z,25.63
2022-12-08T00:23:14.048Z,21.35
2022-12-08T00:25:42.595Z,16.40
2022-12-08T00:28:11.072Z,21.45
2022-12-08T00:30:40.831Z,21.42
2022-12-08T00:33:09.825Z,22.17
2022-12-08T00:35:42.905Z,17.13
2022-12-08T00:38:13.475Z,19.13
2022-12-08T00:40:45.347Z,20.17
2022-12-08T00:43:14.138Z,21.08
2022-12-08T00:45:42.931Z,19.38
2022-12-08T00:48:14.437Z,16.85
2022-12-08T00:50:43.202Z,19.08
2022-12-08T00:53:13.326Z,21.77
2022-12-08T00:55:46.485Z,21.63
2022-12-08T00:58:14.984Z,18.98
2022-12-08T01:00:44.649Z,25.15
2022-12-08T01:03:14.001Z,20.08
2022-12-08T01:05:42.507Z,22.40
2022-12-08T01:08:11.045Z,19.85
2022-12-08T01:10:41.074Z,21.20
2022-12-08T01:13:09.553Z,22.05
2022-12-08T01:15:38.594Z,22.80
2022-12-08T01:18:07.163Z,22.98
2022-12-08T01:20:35.650Z,21.42
2022-12-08T01:23:04.194Z,27.50
2022-12-08T01:25:35.012Z,26.85
2022-12-08T01:28:05.158Z,25.38
2022-12-08T01:30:33.694Z,25.45
2022-12-08T01:33:03.049Z,23.50
2022-12-08T01:35:31.580Z,20.75
2022-12-08T01:38:00.036Z,19.90
2022-12-08T01:40:28.553Z,22.85
2022-12-08T01:42:57.007Z,21.95
2022-12-08T01:45:29.859Z,22.83
2022-12-08T01:48:03.025Z,19.23
2022-12-08T01:50:32.434Z,23.30
2022-12-08T01:53:08.034Z,21.08
2022-12-08T01:55:42.673Z,17.67
2022-12-08T01:58:17.906Z,21.38
2022-12-08T02:00:48.911Z,19.33
2022-12-08T02:03:22.646Z,21.70
2022-12-08T02:05:52.617Z,23.67
2022-12-08T02:08:21.762Z,22.17
2022-12-08T02:10:51.022Z,22.95
2022-12-08T02:13:22.611Z,18.25
2022-12-08T02:16:01.701Z,20.17
2022-12-08T02:18:43.683Z,23.48
2022-12-08T02:21:18.241Z,24.00
2022-12-08T02:23:55.578Z,22.55
2022-12-08T02:26:45.683Z,23.17
2022-12-08T02:29:32.330Z,27.27
2022-12-08T02:32:19.680Z,22.73
2022-12-08T02:34:59.310Z,24.10
2022-12-08T02:37:33.119Z,21.52
2022-12-08T02:40:08.608Z,23.50
2022-12-08T02:42:42.644Z,20.38
2022-12-08T02:45:15.866Z,21.15
2022-12-08T02:47:45.228Z,19.10
2022-12-08T02:50:16.788Z,18.88
2022-12-08T02:52:47.666Z,19.33
2022-12-08T02:55:29.147Z,17.95
2022-12-08T02:58:25.323Z,18.38
2022-12-08T03:01:11.983Z,15.85
2022-12-08T03:03:48.591Z,16.17
2022-12-08T03:06:31.034Z,18.05
2022-12-08T03:09:04.815Z,18.05
2022-12-08T03:11:39.807Z,15.80
2022-12-08T03:14:17.748Z,16.42
2022-12-08T03:16:52.939Z,17.30
2022-12-08T03:19:25.398Z,15.23
2022-12-08T03:22:02.775Z,15.15
2022-12-08T03:24:33.706Z,17.75
2022-12-08T03:27:04.922Z,16.58
2022-12-08T03:29:34.157Z,14.98
2022-12-08T03:32:08.256Z,16.65
2022-12-08T03:34:38.281Z,16.50
2022-12-08T03:37:08.587Z,15.32
2022-12-08T03:39:37.093Z,17.10
2022-12-08T03:42:05.657Z,15.70
2022-12-08T03:44:34.126Z,14.82
2022-12-08T03:47:02.641Z,20.08
2022-12-08T03:49:31.133Z,16.05
2022-12-08T03:52:00.079Z,16.05
2022-12-08T03:54:30.002Z,17.30
2022-12-08T03:56:58.511Z,17.80
2022-12-08T03:59:26.977Z,21.02
2022-12-08T04:01:55.579Z,21.13
2022-12-08T04:04:24.199Z,18.95
2022-12-08T04:06:52.697Z,20.65
2022-12-08T04:09:21.272Z,24.33
2022-12-08T04:11:51.190Z,20.27
2022-12-08T04:14:19.686Z,21.67
2022-12-08T04:16:48.179Z,22.08
2022-12-08T04:19:16.690Z,21.52
2022-12-08T04:21:45.180Z,23.67
2022-12-08T04:24:13.704Z,24.23
2022-12-08T04:26:42.322Z,24.10
2022-12-08T04:29:12.222Z,23.17
2022-12-08T04:31:40.765Z,23.40
2022-12-08T04:34:09.993Z,23.05
2022-12-08T04:36:38.452Z,23.77
2022-12-08T04:39:06.964Z,21.02
2022-12-08T04:41:35.432Z,29.08
2022-12-08T04:44:03.959Z,25.13
2022-12-08T04:46:35.164Z,24.27
2022-12-08T04:49:05.293Z,31.02
2022-12-08T04:51:33.808Z,27.67
2022-12-08T04:54:02.359Z,23.67
2022-12-08T04:56:30.863Z,27.02
2022-12-08T04:58:59.388Z,30.35
2022-12-08T05:01:28.108Z,24.77
2022-12-08T05:03:58.246Z,31.40
2022-12-08T05:06:26.722Z,25.13
2022-12-08T05:08:55.319Z,26.65
2022-12-08T05:11:23.829Z,27.98
2022-12-08T05:13:52.330Z,27.67
2022-12-08T05:16:20.892Z,26.25
2022-12-08T05:18:49.381Z,26.33
2022-12-08T05:21:19.357Z,27.75
2022-12-08T05:23:47.832Z,31.67
2022-12-08T05:26:16.325Z,30.20
2022-12-08T05:28:44.875Z,29.50
2022-12-08T05:31:14.559Z,31.73
2022-12-08T05:33:43.531Z,32.40
2022-12-08T05:36:14.191Z,29.73
2022-12-08T05:38:46.535Z,27.73
2022-12-08T05:41:17.520Z,37.08
2022-12-08T05:43:46.355Z,29.83
2022-12-08T05:46:15.386Z,31.33
2022-12-08T05:48:44.215Z,32.03
2022-12-08T05:51:19.753Z,29.67
2022-12-08T05:53:51.157Z,32.42
2022-12-08T05:56:20.296Z,31.50
2022-12-08T05:58:48.866Z,30.92
2022-12-08T06:01:22.561Z,35.25
2022-12-08T06:03:51.512Z,31.17
2022-12-08T06:06:20.476Z,35.90
2022-12-08T06:08:50.511Z,36.95
2022-12-08T06:11:20.550Z,31.95
2022-12-08T06:13:49.677Z,33.75
2022-12-08T06:16:19.242Z,35.28
2022-12-08T06:18:48.511Z,32.83
2022-12-08T06:21:17.951Z,39.38
2022-12-08T06:23:50.798Z,31.70
2022-12-08T06:26:20.507Z,32.22
2022-12-08T06:28:50.019Z,37.53
2022-12-08T06:31:19.985Z,39.15
2022-12-08T06:33:49.518Z,31.00
2022-12-08T06:36:19.454Z,32.40
2022-12-08T06:38:48.334Z,32.83
2022-12-08T06:41:18.819Z,32.55
2022-12-08T06:43:47.542Z,30.52
2022-12-08T06:46:19.255Z,32.95
2022-12-08T06:48:48.959Z,31.38
2022-12-08T06:51:19.667Z,35.15
2022-12-08T06:53:48.391Z,31.42
2022-12-08T06:56:20.165Z,33.67
2022-12-08T06:58:52.435Z,29.13
2022-12-08T07:01:21.810Z,29.60
2022-12-08T07:03:50.325Z,35.75
2022-12-08T07:06:21.759Z,33.40
2022-12-08T07:08:50.323Z,33.53
2022-12-08T07:11:22.393Z,33.20
2022-12-08T07:13:51.818Z,35.70
2022-12-08T07:16:20.728Z,33.75
2022-12-08T07:18:49.421Z,32.97
2022-12-08T07:21:19.037Z,36.22
2022-12-08T07:23:54.305Z,37.22
2022-12-08T07:26:27.924Z,33.72
2022-12-08T07:28:56.640Z,31.45
2022-12-08T07:31:26.741Z,40.00
2022-12-08T07:33:55.986Z,43.95
2022-12-08T07:36:25.366Z,31.42
2022-12-08T07:38:54.575Z,36.63
2022-12-08T07:41:25.512Z,34.45
2022-12-08T07:43:56.668Z,31.10
2022-12-08T07:46:26.846Z,30.08
2022-12-08T07:48:57.383Z,31.60
2022-12-08T07:51:26.181Z,31.60
2022-12-08T07:53:55.357Z,32.33
2022-12-08T07:56:24.162Z,32.00
2022-12-08T07:58:52.793Z,32.97
2022-12-08T08:01:25.472Z,31.17
2022-12-08T08:03:55.912Z,31.25
2022-12-08T08:06:25.232Z,39.30
2022-12-08T08:08:53.808Z,33.13
2022-12-08T08:11:22.576Z,33.05
2022-12-08T08:13:51.593Z,31.45
2022-12-08T08:16:20.926Z,33.13
2022-12-08T08:18:52.043Z,31.85
2022-12-08T08:21:44.531Z,32.95
2022-12-08T08:24:10.413Z,28.65
2022-12-08T08:26:39.261Z,37.00
2022-12-08T08:29:07.860Z,31.73
2022-12-08T08:31:36.390Z,34.40
2022-12-08T08:34:06.581Z,32.97
2022-12-08T08:36:35.423Z,36.90
2022-12-08T08:39:04.339Z,34.22
2022-12-08T08:41:32.900Z,33.67
2022-12-08T08:44:01.556Z,29.35
2022-12-08T08:46:30.107Z,32.55
2022-12-08T08:48:58.759Z,28.98
2022-12-08T08:51:28.711Z,30.88
2022-12-08T08:53:57.786Z,29.50
2022-12-08T08:56:26.860Z,30.13
2022-12-08T08:58:55.405Z,31.80
2022-12-08T09:01:25.719Z,31.95
2022-12-08T09:03:55.161Z,34.05
2022-12-08T09:06:24.237Z,35.17
2022-12-08T09:08:54.238Z,41.63
2022-12-08T09:11:23.547Z,33.35
2022-12-08T09:13:53.258Z,31.17
2022-12-08T09:16:23.252Z,32.67
2022-12-08T09:18:52.040Z,35.30
2022-12-08T09:21:23.724Z,37.17
2022-12-08T09:23:55.851Z,32.95
2022-12-08T09:26:24.970Z,32.90
2022-12-08T09:28:55.107Z,34.15
2022-12-08T09:31:25.771Z,34.03
2022-12-08T09:33:54.372Z,33.63
2022-12-08T09:36:23.150Z,37.55
2022-12-08T09:38:53.747Z,30.50
2022-12-08T09:41:38.899Z,30.67
2022-12-08T09:44:33.719Z,36.90
2022-12-08T09:47:06.473Z,39.08
2022-12-08T09:49:40.960Z,35.38
2022-12-08T09:54:46.332Z,33.78
2022-12-08T09:57:20.541Z,37.42
2022-12-08T09:59:55.260Z,33.13
2022-12-08T10:02:26.300Z,32.92
2022-12-08T10:04:57.699Z,33.75
2022-12-08T10:07:35.457Z,31.80
2022-12-08T10:10:16.323Z,31.63
2022-12-08T10:12:52.447Z,34.55
2022-12-08T10:15:36.920Z,37.35
2022-12-08T10:18:13.187Z,33.90
2022-12-08T10:20:44.107Z,34.33
2022-12-08T10:23:22.376Z,31.15
2022-12-08T10:25:54.595Z,30.55
2022-12-08T10:28:24.542Z,29.25
2022-12-08T10:30:53.157Z,29.40
2022-12-08T10:33:23.831Z,27.33
2022-12-08T10:35:58.494Z,28.20
2022-12-08T10:38:31.035Z,30.25
2022-12-08T10:41:05.673Z,32.45
2022-12-08T10:43:37.806Z,30.67
2022-12-08T10:46:12.042Z,26.30
2022-12-08T10:48:50.416Z,31.90
2022-12-08T10:51:41.168Z,27.13
2022-12-08T10:54:29.276Z,28.77
2022-12-08T10:56:58.636Z,28.48
2022-12-08T10:59:29.296Z,33.78
2022-12-08T11:01:58.623Z,29.10
2022-12-08T11:04:35.869Z,33.03
2022-12-08T11:07:06.683Z,26.08
2022-12-08T11:09:40.442Z,24.70
2022-12-08T11:12:13.830Z,25.08
2022-12-08T11:14:59.073Z,27.77
2022-12-08T11:17:28.743Z,28.75
2022-12-08T11:19:59.696Z,23.48
2022-12-08T11:22:32.300Z,24.55
2022-12-08T11:25:11.643Z,23.35
2022-12-08T11:27:43.550Z,26.30
2022-12-08T11:30:18.591Z,23.92
2022-12-08T11:32:50.329Z,23.40
2022-12-08T11:35:27.897Z,25.92
2022-12-08T11:38:19.890Z,24.15
2022-12-08T11:40:51.935Z,28.05
2022-12-08T11:43:28.372Z,27.63
2022-12-08T11:46:02.880Z,25.08
2022-12-08T11:48:38.911Z,26.92
2022-12-08T11:51:12.518Z,27.13
2022-12-08T11:53:48.523Z,25.67
2022-12-08T11:56:21.327Z,28.60
2022-12-08T11:58:53.231Z,26.13
2022-12-08T12:01:25.133Z,29.48
2022-12-08T12:04:01.134Z,28.23
2022-12-08T12:06:59.413Z,24.27
2022-12-08T12:09:40.246Z,34.45
2022-12-08T12:12:21.786Z,26.63
2022-12-08T12:15:25.408Z,30.10
2022-12-08T12:18:00.645Z,21.05
2022-12-08T12:20:32.758Z,23.67
2022-12-08T12:23:06.075Z,25.48
2022-12-08T12:25:37.253Z,24.63
2022-12-08T12:28:08.886Z,28.63
2022-12-08T12:30:53.578Z,22.25
2022-12-08T12:35:54.050Z,22.15
2022-12-08T12:38:44.004Z,21.65
2022-12-08T12:41:14.826Z,24.13
2022-12-08T12:44:22.833Z,22.77
2022-12-08T12:46:59.949Z,25.52
2022-12-08T12:50:09.794Z,22.05
2022-12-08T12:52:42.933Z,23.55
2022-12-08T12:55:54.847Z,26.30
2022-12-08T12:58:41.134Z,26.05
2022-12-08T13:01:51.901Z,25.70
2022-12-08T13:04:21.230Z,22.63
2022-12-08T13:06:52.300Z,25.55
2022-12-08T13:09:31.534Z,26.92
2022-12-08T13:12:02.638Z,26.73
2022-12-08T13:14:35.178Z,29.73
2022-12-08T13:17:08.721Z,34.72
2022-12-08T13:19:39.996Z,27.73
2022-12-08T13:22:57.287Z,24.55
2022-12-08T13:26:09.206Z,27.05
2022-12-08T13:29:06.204Z,24.70
2022-12-08T13:31:42.573Z,27.35
2022-12-08T13:34:18.210Z,35.60
2022-12-08T13:36:56.399Z,44.58
2022-12-08T13:39:29.539Z,36.83
2022-12-08T13:42:06.890Z,30.10
2022-12-08T13:47:34.744Z,32.47
2022-12-08T13:51:07.004Z,30.65
2022-12-08T13:58:41.160Z,25.92
2022-12-08T14:01:14.925Z,26.92
2022-12-08T14:04:20.445Z,32.58
2022-12-08T14:06:43.724Z,27.58
2022-12-08T14:09:16.149Z,24.65
2022-12-08T14:11:48.898Z,26.10
2022-12-08T14:14:45.955Z,27.77
2022-12-08T14:17:18.706Z,29.50
2022-12-08T14:19:58.740Z,25.10
2022-12-08T14:22:34.404Z,27.02
2022-12-08T14:25:03.834Z,22.80
2022-12-08T14:27:35.797Z,22.13
2022-12-08T14:30:21.541Z,23.50
2022-12-08T14:32:58.057Z,25.15
2022-12-08T14:35:32.870Z,26.27
2022-12-08T14:40:36.848Z,25.20
2022-12-08T14:43:16.744Z,35.70
2022-12-08T14:45:53.441Z,22.73
2022-12-08T14:48:24.370Z,26.30
2022-12-08T14:51:01.858Z,28.02
2022-12-08T14:53:37.700Z,27.20
2022-12-08T14:56:10.086Z,23.10
2022-12-08T14:58:38.747Z,22.50
2022-12-08T15:01:10.481Z,19.25
2022-12-08T15:03:39.488Z,23.40
2022-12-08T15:06:10.348Z,21.52
2022-12-08T15:08:55.961Z,21.00
2022-12-08T15:11:54.686Z,17.83
2022-12-08T15:14:39.115Z,19.67
2022-12-08T15:17:43.305Z,21.40
2022-12-08T15:23:05.446Z,19.05
2022-12-08T15:25:35.293Z,20.40
2022-12-08T15:28:04.351Z,20.13
2022-12-08T15:30:33.419Z,23.75
2022-12-08T15:33:02.005Z,23.02
2022-12-08T15:35:31.451Z,24.35
2022-12-08T15:38:01.336Z,32.63
2022-12-08T15:40:31.474Z,31.83
2022-12-08T15:43:00.261Z,23.65
2022-12-08T15:45:32.029Z,22.13
2022-12-08T15:48:00.540Z,27.77
2022-12-08T15:50:29.188Z,28.58
2022-12-08T15:52:57.919Z,27.85
2022-12-08T15:55:26.483Z,27.23
2022-12-08T16:00:54.202Z,35.65
2022-12-08T16:04:09.373Z,42.92
2022-12-08T16:09:16.895Z,68.45
2022-12-08T16:12:07.134Z,57.35
2022-12-08T16:17:28.365Z,36.13
2022-12-08T16:19:56.946Z,28.58
2022-12-08T16:22:52.867Z,51.05
2022-12-08T16:25:19.221Z,54.80
2022-12-08T16:30:40.314Z,31.25
2022-12-08T16:33:08.939Z,25.35
2022-12-08T16:35:37.473Z,27.02
2022-12-08T16:38:06.035Z,29.95
2022-12-08T16:40:55.842Z,36.60
2022-12-08T16:43:23.351Z,25.17
2022-12-08T16:45:53.299Z,29.17
2022-12-08T16:48:22.569Z,42.97
2022-12-08T16:50:51.247Z,37.10
2022-12-08T16:53:19.749Z,27.63
2022-12-08T16:55:49.094Z,23.40
2022-12-08T16:58:19.467Z,20.73
2022-12-08T17:00:48.274Z,24.48
2022-12-08T17:03:18.541Z,22.48
2022-12-08T17:05:47.066Z,30.60
2022-12-08T17:08:15.680Z,24.05
2022-12-08T17:10:44.240Z,21.17
2022-12-08T17:13:13.183Z,19.65
2022-12-08T17:15:41.692Z,34.20
2022-12-08T17:18:10.170Z,64.07
2022-12-08T17:20:40.716Z,33.63
2022-12-08T17:23:09.256Z,41.50
2022-12-08T17:25:38.024Z,41.90
2022-12-08T17:28:06.614Z,32.40
2022-12-08T17:30:35.180Z,51.40
2022-12-08T17:33:03.776Z,41.80
2022-12-08T17:35:32.308Z,54.30
2022-12-08T17:38:02.237Z,40.95
2022-12-08T17:40:30.778Z,37.13
2022-12-08T17:42:59.242Z,60.88
2022-12-08T17:45:32.715Z,44.78
2022-12-08T17:48:01.238Z,78.53
2022-12-08T17:50:29.779Z,28.67
2022-12-08T17:52:58.571Z,31.95
2022-12-08T17:55:28.497Z,30.20
2022-12-08T17:57:57.000Z,29.23
2022-12-08T18:00:25.714Z,32.15
2022-12-08T18:02:54.508Z,29.27
2022-12-08T18:05:23.277Z,33.80
2022-12-08T18:07:52.492Z,70.47
2022-12-08T18:10:21.230Z,49.08
2022-12-08T18:12:51.101Z,56.13
2022-12-08T18:15:20.599Z,74.32
2022-12-08T18:17:49.172Z,71.50
2022-12-08T18:20:17.880Z,70.13
2022-12-08T18:22:46.406Z,51.47
2022-12-08T18:25:15.913Z,57.80
2022-12-08T18:27:44.578Z,54.58
2022-12-08T18:30:18.309Z,89.68
2022-12-08T18:32:47.450Z,65.72
2022-12-08T18:35:16.008Z,50.97
2022-12-08T18:37:44.569Z,38.53
2022-12-08T18:40:14.141Z,39.80
2022-12-08T18:42:42.769Z,40.15
2022-12-08T18:45:12.213Z,35.17
2022-12-08T18:47:42.127Z,32.65
2022-12-08T18:50:12.412Z,48.97
2022-12-08T18:52:40.943Z,22.67
2022-12-08T18:55:10.386Z,29.60
2022-12-08T18:57:40.017Z,33.00
2022-12-08T19:00:12.137Z,34.00
2022-12-08T19:02:42.809Z,35.90
2022-12-08T19:05:13.466Z,32.35
2022-12-08T19:07:43.727Z,89.82
2022-12-08T19:10:13.398Z,67.20
2022-12-08T19:12:42.505Z,45.78
2022-12-08T19:15:11.886Z,39.80
2022-12-08T19:17:41.863Z,33.58
2022-12-08T19:20:11.530Z,36.05
2022-12-08T19:22:40.087Z,25.67
2022-12-08T19:25:09.339Z,29.27
2022-12-08T19:27:37.902Z,25.55
2022-12-08T19:30:08.220Z,26.13
2022-12-08T19:32:36.887Z,24.45
2022-12-08T19:35:07.630Z,22.65
2022-12-08T19:37:36.267Z,23.55
2022-12-08T19:40:28.211Z,24.17
2022-12-08T19:43:14.399Z,23.73
2022-12-08T19:45:43.033Z,21.40
2022-12-08T19:48:14.138Z,19.17
2022-12-08T19:50:44.087Z,18.23
2022-12-08T19:53:14.546Z,17.45
2022-12-08T19:55:43.726Z,18.33
2022-12-08T19:58:12.569Z,17.38
2022-12-08T20:00:42.266Z,15.73
2022-12-08T20:03:15.249Z,19.90
2022-12-08T20:05:46.770Z,16.55
2022-12-08T20:08:15.800Z,17.63
2022-12-08T20:10:45.718Z,15.93
2022-12-08T20:13:46.366Z,17.30
2022-12-08T20:16:15.768Z,17.15
2022-12-08T20:18:45.998Z,17.17
2022-12-08T20:21:15.873Z,15.98
2022-12-08T20:23:45.562Z,17.58
2022-12-08T20:26:14.509Z,17.08
2022-12-08T20:28:43.478Z,17.85
2022-12-08T20:31:18.911Z,21.25
2022-12-08T20:33:48.307Z,15.70
2022-12-08T20:36:19.904Z,16.30
2022-12-08T20:38:49.672Z,15.07
2022-12-08T20:41:19.221Z,18.27
2022-12-08T20:43:54.803Z,15.68
2022-12-08T20:46:32.869Z,16.15
2022-12-08T20:49:03.974Z,28.92
2022-12-08T20:51:37.799Z,18.98
2022-12-08T20:54:06.418Z,18.23
2022-12-08T20:56:35.049Z,22.23
2022-12-08T20:59:03.656Z,13.95
2022-12-08T21:01:32.493Z,17.08
2022-12-08T21:04:02.117Z,18.52
2022-12-08T21:06:31.042Z,16.88
2022-12-08T21:09:01.091Z,16.80
2022-12-08T21:11:29.775Z,18.98
2022-12-08T21:13:58.299Z,17.33
2022-12-08T21:16:27.075Z,22.85
2022-12-08T21:18:55.672Z,17.23
2022-12-08T21:21:24.764Z,18.25
2022-12-08T21:23:53.582Z,21.35
2022-12-08T21:26:26.031Z,17.75
2022-12-08T21:28:55.914Z,19.52
2022-12-08T21:31:26.416Z,16.73
2022-12-08T21:33:55.322Z,16.75
2022-12-08T21:36:24.231Z,17.55
2022-12-08T21:38:54.626Z,17.65
2022-12-08T21:41:39.073Z,17.33
2022-12-08T21:44:09.988Z,16.05
2022-12-08T21:46:39.587Z,18.20
2022-12-08T21:49:08.467Z,17.15
2022-12-08T21:51:41.776Z,17.92
2022-12-08T21:54:15.001Z,18.17
2022-12-08T21:56:50.414Z,17.90
2022-12-08T21:59:19.807Z,15.90
2022-12-08T22:01:48.684Z,18.58
2022-12-08T22:04:19.021Z,15.70
2022-12-08T22:06:48.092Z,15.98
2022-12-08T22:09:16.929Z,19.67
2022-12-08T22:11:45.906Z,17.58
2022-12-08T22:14:15.956Z,18.60
2022-12-08T22:16:45.287Z,17.17
2022-12-08T22:19:13.942Z,21.92
2022-12-08T22:21:42.581Z,18.25
2022-12-08T22:24:11.165Z,20.08
2022-12-08T22:26:39.760Z,18.65
2022-12-08T22:29:08.473Z,17.65
2022-12-08T22:31:38.685Z,17.95
2022-12-08T22:34:07.483Z,19.33
2022-12-08T22:36:36.531Z,17.77
2022-12-08T22:39:05.895Z,18.48
2022-12-08T22:41:34.473Z,18.20
2022-12-08T22:44:06.051Z,19.98
2022-12-08T22:46:34.933Z,17.30
2022-12-08T22:49:05.148Z,16.90
2022-12-08T22:51:36.796Z,18.77
2022-12-08T22:54:05.612Z,20.50
2022-12-08T22:56:34.461Z,17.58
2022-12-08T22:59:03.130Z,18.52
2022-12-08T23:01:33.668Z,20.25
2022-12-08T23:04:04.843Z,18.10
2022-12-08T23:06:33.952Z,21.10
2022-12-08T23:09:02.730Z,22.85
2022-12-08T23:11:32.791Z,22.42
2022-12-08T23:14:01.793Z,22.00
2022-12-08T23:16:31.416Z,21.63
2022-12-08T23:19:00.375Z,21.25
2022-12-08T23:21:30.751Z,23.90
2022-12-08T23:24:00.973Z,23.80
2022-12-08T23:26:31.715Z,20.80
2022-12-08T23:29:00.739Z,21.88
2022-12-08T23:31:29.823Z,23.98
2022-12-08T23:33:58.768Z,22.88
2022-12-08T23:36:27.463Z,27.70
2022-12-08T23:38:57.369Z,27.30
2022-12-08T23:41:26.006Z,26.13
2022-12-08T23:43:54.597Z,26.42
2022-12-08T23:46:24.241Z,22.40
2022-12-08T23:48:52.909Z,27.20
2022-12-08T23:51:21.612Z,29.85
2022-12-08T23:53:50.939Z,26.85
2022-12-08T23:56:26.972Z,24.80
2022-12-08T23:58:58.524Z,25.08
